Time;durP1;ratioP1;P1;durP2;ratioP2;P2;SDS_P1;SDS_P2;PMS_P1;PMS_P2;Temp;Humidity;BMP_temperature;BMP_pressure;BME280_temperature;BME280_humidity;BME280_pressure;Samples;Min_cycle;Max_cycle;Signal;HPM_P1;HPM_P2
2022/12/15 00:39:05;;;;;;;34.72;18.83;;;-3.00;99.90;;;;;;5137273;27;20046;-84
2022/12/15 00:41:31;;;;;;;33.25;18.40;;;-3.00;99.90;;;;;;5155059;27;20100;-84
2022/12/15 00:43:57;;;;;;;32.88;18.08;;;-2.90;99.90;;;;;;5119497;27;20799;-84
2022/12/15 00:50:50;;;;;;;28.10;16.50;;;-2.70;99.90;;;;;;5121987;27;20409;-85
2022/12/15 01:21:58;;;;;;;31.83;18.27;;;-2.70;99.90;;;;;;5133063;27;20154;-84
2022/12/15 01:24:23;;;;;;;30.75;16.38;;;-2.80;99.90;;;;;;5132633;27;20130;-83
2022/12/15 01:26:49;;;;;;;32.80;17.95;;;-2.00;99.90;;;;;;5132061;27;20544;-83
2022/12/15 01:29:15;;;;;;;34.58;18.85;;;-2.80;99.90;;;;;;5115032;27;20688;-84
2022/12/15 01:31:42;;;;;;;32.45;16.80;;;-2.80;99.90;;;;;;5132136;27;20051;-83
2022/12/15 01:34:07;;;;;;;35.03;17.17;;;-2.70;99.90;;;;;;5132437;27;20126;-84
2022/12/15 01:36:33;;;;;;;33.28;16.67;;;-2.80;99.90;;;;;;5114969;27;20130;-84
2022/12/15 01:38:59;;;;;;;29.00;16.95;;;-1.80;99.90;;;;;;5115096;27;20047;-84
2022/12/15 01:41:25;;;;;;;30.20;16.75;;;-2.80;99.90;;;;;;5115009;27;20081;-84
2022/12/15 01:43:51;;;;;;;34.05;18.35;;;-2.80;99.90;;;;;;5115214;27;20058;-84
2022/12/15 01:46:20;;;;;;;32.22;17.58;;;-2.80;99.90;;;;;;5097838;27;20414;-84
2022/12/15 01:48:46;;;;;;;33.80;17.42;;;-2.80;99.90;;;;;;5098081;27;20078;-84
2022/12/15 01:51:17;;;;;;;37.05;16.83;;;-2.90;99.90;;;;;;5097933;27;20055;-84
2022/12/15 01:54:02;;;;;;;32.95;17.63;;;-2.80;99.90;;;;;;5131397;27;20054;-83
2022/12/15 01:56:28;;;;;;;32.85;17.13;;;-2.90;99.90;;;;;;5116461;27;20077;-84
2022/12/15 01:58:55;;;;;;;35.20;17.17;;;-2.80;99.90;;;;;;5114406;27;20474;-84
2022/12/15 02:01:21;;;;;;;32.75;18.27;;;-2.80;99.90;;;;;;5097712;27;20058;-84
2022/12/15 02:03:46;;;;;;;33.67;18.27;;;-1.40;99.90;;;;;;5097297;27;20043;-85
2022/12/15 02:06:12;;;;;;;32.83;17.20;;;-2.70;99.90;;;;;;5097406;27;20066;-84
2022/12/15 02:08:38;;;;;;;34.85;17.58;;;-2.70;99.90;;;;;;5114303;27;20076;-84
2022/12/15 02:11:30;;;;;;;32.50;17.02;;;-2.60;99.90;;;;;;5097133;27;20126;-84
2022/12/15 02:14:01;;;;;;;33.25;16.92;;;-2.60;99.90;;;;;;5131293;27;20055;-84
2022/12/15 02:16:30;;;;;;;29.08;17.13;;;-2.60;99.90;;;;;;5114440;27;20097;-84
2022/12/15 02:19:25;;;;;;;32.40;16.55;;;-2.50;99.90;;;;;;5114301;27;20135;-85
2022/12/15 02:22:21;;;;;;;32.15;16.15;;;-2.60;99.90;;;;;;5085345;27;20449;-85
2022/12/15 02:24:46;;;;;;;29.20;14.98;;;-2.60;99.90;;;;;;5099188;27;20047;-84
2022/12/15 02:27:18;;;;;;;34.03;16.50;;;-2.50;99.90;;;;;;5131169;27;20058;-84
2022/12/15 02:30:21;;;;;;;30.55;16.27;;;-2.50;99.90;;;;;;5131277;27;20039;-84
2022/12/15 02:33:00;;;;;;;32.20;16.45;;;-2.50;99.90;;;;;;5131004;27;20094;-84
2022/12/15 02:35:31;;;;;;;29.58;15.48;;;-2.50;99.90;;;;;;5098572;27;20053;-83
2022/12/15 02:37:57;;;;;;;30.95;16.50;;;-2.50;99.90;;;;;;5113850;27;20105;-83
2022/12/15 02:40:23;;;;;;;29.75;15.73;;;-2.60;99.90;;;;;;5130680;27;20086;-84
2022/12/15 02:42:51;;;;;;;26.77;14.75;;;-2.60;99.90;;;;;;5131226;27;20105;-84
2022/12/15 02:45:42;;;;;;;29.27;15.10;;;-2.60;99.90;;;;;;5097426;27;20497;-84
2022/12/15 02:48:51;;;;;;;26.38;14.75;;;-2.20;99.90;;;;;;5097702;27;20053;-83
2022/12/15 02:51:53;;;;;;;30.80;14.60;;;-2.50;99.90;;;;;;5124816;27;20090;-84
2022/12/15 02:54:30;;;;;;;25.45;14.05;;;-2.50;99.90;;;;;;5060931;28;20096;-84
2022/12/15 02:57:18;;;;;;;29.92;15.30;;;-2.60;99.90;;;;;;5096907;27;20050;-84
2022/12/15 02:59:57;;;;;;;32.95;16.27;;;-2.50;99.90;;;;;;5113708;27;20406;-84
2022/12/15 03:02:24;;;;;;;27.75;15.55;;;-2.60;99.90;;;;;;5113441;27;20089;-85
2022/12/15 03:04:49;;;;;;;26.77;14.38;;;-2.60;99.90;;;;;;5096328;27;20047;-84
2022/12/15 03:07:15;;;;;;;28.83;14.98;;;-2.60;99.90;;;;;;5096449;27;20046;-84
2022/12/15 03:09:41;;;;;;;31.55;16.05;;;-2.40;99.90;;;;;;5113238;28;20035;-83
2022/12/15 03:12:07;;;;;;;26.85;15.50;;;-2.70;99.90;;;;;;5129818;27;20051;-83
2022/12/15 03:14:33;;;;;;;28.33;15.68;;;-2.70;99.90;;;;;;5096895;27;20051;-84
2022/12/15 03:16:58;;;;;;;26.55;15.10;;;-2.40;99.90;;;;;;5096725;28;20476;-84
2022/12/15 03:19:24;;;;;;;30.85;17.20;;;-2.80;99.90;;;;;;5096416;28;20059;-84
2022/12/15 03:21:51;;;;;;;32.35;16.20;;;-2.80;99.90;;;;;;5130610;28;20062;-83
2022/12/15 03:24:16;;;;;;;27.60;13.23;;;-2.70;99.90;;;;;;5096865;28;20055;-83
2022/12/15 03:26:42;;;;;;;27.55;15.68;;;-2.80;99.90;;;;;;5130375;28;20066;-83
2022/12/15 03:29:08;;;;;;;31.48;16.33;;;-2.80;99.90;;;;;;5130638;28;20043;-85
2022/12/15 03:31:34;;;;;;;28.15;15.00;;;-2.80;99.90;;;;;;5096593;28;20111;-82
2022/12/15 03:33:59;;;;;;;26.17;15.85;;;-2.80;99.90;;;;;;5130238;28;20075;-83
2022/12/15 03:36:26;;;;;;;27.05;15.93;;;-2.70;99.90;;;;;;5113577;28;20051;-83
2022/12/15 03:38:52;;;;;;;25.10;14.52;;;-2.80;99.90;;;;;;5113359;28;20394;-83
2022/12/15 03:41:18;;;;;;;27.25;14.90;;;-2.80;99.90;;;;;;5130098;28;20474;-82
2022/12/15 03:43:45;;;;;;;27.05;14.88;;;-2.70;99.90;;;;;;5113015;28;20116;-84
2022/12/15 03:46:11;;;;;;;29.40;15.32;;;-2.70;99.90;;;;;;5131228;27;20047;-84
2022/12/15 03:48:36;;;;;;;25.67;15.27;;;-2.70;99.90;;;;;;5113179;28;20058;-83
2022/12/15 03:51:02;;;;;;;25.60;14.35;;;-2.70;99.90;;;;;;5112817;28;20058;-83
2022/12/15 03:53:27;;;;;;;28.15;14.48;;;-2.70;99.90;;;;;;5130128;28;20043;-84
2022/12/15 03:55:53;;;;;;;26.73;14.23;;;-2.80;99.90;;;;;;5129549;28;20082;-83
2022/12/15 03:58:19;;;;;;;28.85;16.13;;;-2.70;99.90;;;;;;5130283;28;20443;-83
2022/12/15 04:00:45;;;;;;;27.15;15.27;;;-1.60;99.90;;;;;;5113332;28;20043;-83
2022/12/15 04:03:11;;;;;;;29.63;14.93;;;-2.60;99.90;;;;;;5095668;28;20069;-84
2022/12/15 04:05:37;;;;;;;25.15;14.40;;;-2.70;99.90;;;;;;5113095;27;20386;-82
2022/12/15 04:08:02;;;;;;;24.73;14.63;;;-2.70;99.90;;;;;;5115917;27;20126;-82
2022/12/15 04:10:30;;;;;;;28.45;15.02;;;-2.70;99.90;;;;;;5136590;27;20063;-83
2022/12/15 04:13:13;;;;;;;29.83;15.20;;;-2.20;99.90;;;;;;5120587;27;20047;-82
2022/12/15 04:15:39;;;;;;;32.05;16.00;;;-2.80;99.90;;;;;;5137701;27;20082;-84
2022/12/15 04:18:06;;;;;;;26.23;14.48;;;-2.70;99.90;;;;;;5137525;27;20103;-85
2022/12/15 04:20:32;;;;;;;28.20;14.07;;;-2.70;99.90;;;;;;5103373;27;20058;-82
2022/12/15 04:22:58;;;;;;;24.50;14.10;;;-2.30;99.90;;;;;;5120770;27;20047;-83
2022/12/15 05:33:56;;;;;;;20.75;11.13;;;-2.30;99.90;;;;;;5135648;27;20105;-84
2022/12/15 05:36:22;;;;;;;24.33;13.05;;;-2.40;99.90;;;;;;5135244;27;20090;-84
2022/12/15 05:38:49;;;;;;;22.98;12.57;;;-2.40;99.90;;;;;;5101250;27;20051;-84
2022/12/15 05:41:14;;;;;;;22.02;12.68;;;-2.40;99.90;;;;;;5118916;27;20057;-83
2022/12/15 05:43:40;;;;;;;30.58;13.85;;;-2.00;99.90;;;;;;5135512;27;20661;-83
2022/12/15 05:46:05;;;;;;;24.85;12.90;;;-2.40;99.90;;;;;;5118258;27;20050;-82
2022/12/15 05:48:31;;;;;;;20.08;12.32;;;-2.40;99.90;;;;;;5134956;27;20046;-84
2022/12/15 05:50:59;;;;;;;24.25;12.63;;;-2.40;99.90;;;;;;5101194;27;20047;-85
2022/12/15 05:53:24;;;;;;;20.85;12.63;;;-0.80;99.90;;;;;;5101369;27;20470;-83
2022/12/15 05:55:50;;;;;;;26.58;13.30;;;-1.80;99.90;;;;;;5134302;27;20046;-83
2022/12/15 05:58:16;;;;;;;19.90;12.38;;;-2.30;99.90;;;;;;5118006;27;20042;-84
2022/12/15 06:00:41;;;;;;;22.85;13.77;;;-2.30;99.90;;;;;;5135253;27;20054;-84
2022/12/15 06:03:07;;;;;;;24.15;12.23;;;-2.30;99.90;;;;;;5153396;27;20073;-84
2022/12/15 06:05:33;;;;;;;24.40;11.95;;;-2.30;99.90;;;;;;5134917;27;20402;-84
2022/12/15 06:07:59;;;;;;;19.45;10.25;;;-2.30;99.90;;;;;;5135378;27;20041;-85
2022/12/15 06:10:24;;;;;;;23.98;12.45;;;-2.30;99.90;;;;;;5134718;27;20054;-84
2022/12/15 06:12:50;;;;;;;22.65;12.00;;;-2.20;99.90;;;;;;5153224;27;20050;-84
2022/12/15 06:15:16;;;;;;;19.80;12.05;;;-2.30;99.90;;;;;;5134924;27;20042;-84
2022/12/15 06:17:41;;;;;;;22.08;10.95;;;-2.30;99.90;;;;;;5135673;27;20086;-84
2022/12/15 06:20:07;;;;;;;25.20;12.60;;;-2.30;99.90;;;;;;5118121;27;20410;-83
2022/12/15 06:22:33;;;;;;;25.58;12.32;;;-2.30;99.90;;;;;;5134574;27;20401;-84
2022/12/15 06:24:59;;;;;;;19.08;11.90;;;-2.30;99.90;;;;;;5152275;27;20082;-85
2022/12/15 06:27:24;;;;;;;21.38;12.07;;;-0.80;99.90;;;;;;5133759;27;20046;-84
2022/12/15 06:29:50;;;;;;;21.85;12.18;;;-2.20;99.90;;;;;;5133496;27;20047;-83
2022/12/15 06:32:15;;;;;;;20.83;11.57;;;-2.20;99.90;;;;;;5117621;27;20510;-84
2022/12/15 06:34:41;;;;;;;24.83;11.50;;;-2.30;99.90;;;;;;5117828;27;20051;-84
2022/12/15 06:37:07;;;;;;;24.00;11.90;;;-2.30;99.90;;;;;;5118064;27;20042;-83
2022/12/15 06:39:32;;;;;;;17.50;10.95;;;-2.30;99.90;;;;;;5135143;27;20137;-84
2022/12/15 06:41:58;;;;;;;19.45;11.30;;;-1.00;99.90;;;;;;5117838;27;20046;-86
2022/12/15 06:44:24;;;;;;;20.30;11.18;;;-2.30;99.90;;;;;;5117669;27;20047;-85
2022/12/15 06:46:49;;;;;;;23.63;11.30;;;-2.20;99.90;;;;;;5117739;27;20043;-84
2022/12/15 06:49:15;;;;;;;20.65;11.00;;;-2.30;99.90;;;;;;5134765;27;20134;-84
2022/12/15 06:51:42;;;;;;;19.55;11.38;;;-1.80;99.90;;;;;;5134485;27;20050;-84
2022/12/15 06:54:09;;;;;;;20.98;10.95;;;-2.30;99.90;;;;;;5117699;27;20051;-84
2022/12/15 06:56:35;;;;;;;17.80;9.60;;;-2.30;99.90;;;;;;5100431;27;20081;-84
2022/12/15 06:59:05;;;;;;;26.08;11.57;;;-2.20;99.90;;;;;;5134762;27;20109;-85
2022/12/15 07:01:30;;;;;;;17.90;10.65;;;-2.20;99.90;;;;;;5084462;27;20054;-84
2022/12/15 07:03:58;;;;;;;19.83;11.18;;;-2.20;99.90;;;;;;5101455;27;20054;-84
2022/12/15 07:06:24;;;;;;;20.15;11.90;;;-2.20;99.90;;;;;;5117953;27;20090;-85
2022/12/15 07:08:51;;;;;;;20.98;11.57;;;-2.20;99.90;;;;;;5134739;27;20099;-84
2022/12/15 07:11:17;;;;;;;18.48;11.23;;;-2.20;99.90;;;;;;5097311;28;20051;-84
2022/12/15 07:13:47;;;;;;;21.70;11.10;;;-2.20;99.90;;;;;;5097038;28;20057;-84
2022/12/15 07:16:13;;;;;;;23.27;12.73;;;-2.20;99.90;;;;;;5131546;27;20058;-84
2022/12/15 07:18:39;;;;;;;18.13;10.38;;;-2.20;99.90;;;;;;5097348;28;20047;-84
2022/12/15 07:21:06;;;;;;;21.13;10.88;;;-2.10;99.90;;;;;;5113715;28;20403;-84
2022/12/15 07:23:32;;;;;;;19.65;11.55;;;-0.90;99.90;;;;;;5096795;28;20059;-85
2022/12/15 07:25:58;;;;;;;20.50;12.25;;;-2.30;99.90;;;;;;5113226;28;20054;-84
2022/12/15 07:28:23;;;;;;;24.42;11.85;;;-0.80;99.90;;;;;;5130457;28;20076;-84
2022/12/15 07:30:49;;;;;;;19.10;11.73;;;-2.40;99.90;;;;;;5130643;28;20043;-84
2022/12/15 07:33:15;;;;;;;22.17;11.88;;;-2.20;99.90;;;;;;5113381;28;20051;-85
2022/12/15 07:35:41;;;;;;;20.75;12.02;;;-2.30;99.90;;;;;;5131228;28;20042;-84
2022/12/15 07:38:07;;;;;;;21.33;12.27;;;-2.30;99.90;;;;;;5097037;28;20137;-85
2022/12/15 07:40:33;;;;;;;20.48;11.27;;;-2.30;99.90;;;;;;5114298;27;20129;-84
2022/12/15 07:42:58;;;;;;;21.90;11.20;;;-2.30;99.90;;;;;;5118111;27;20060;-84
2022/12/15 07:45:24;;;;;;;22.13;11.30;;;-2.30;99.90;;;;;;5117921;27;20039;-83
2022/12/15 07:47:50;;;;;;;18.98;11.55;;;-2.30;99.90;;;;;;5134833;27;20444;-84
2022/12/15 07:50:17;;;;;;;16.83;10.13;;;-2.20;99.90;;;;;;5134277;27;20459;-84
2022/12/15 07:52:43;;;;;;;18.45;10.75;;;-1.50;99.90;;;;;;5117178;27;20067;-84
2022/12/15 07:55:09;;;;;;;19.77;11.57;;;-2.20;99.90;;;;;;5134085;27;20122;-87
2022/12/15 07:57:35;;;;;;;23.33;12.25;;;-2.10;99.90;;;;;;5118229;27;20151;-86
2022/12/15 08:00:00;;;;;;;17.05;10.38;;;-2.10;99.90;;;;;;5136493;27;20092;-88
2022/12/15 08:02:26;;;;;;;19.02;10.32;;;-2.10;99.90;;;;;;5117795;27;20099;-89
2022/12/15 08:04:51;;;;;;;19.17;10.73;;;-2.10;99.90;;;;;;5117985;27;20126;-90
2022/12/15 08:07:17;;;;;;;19.10;10.82;;;-2.10;99.90;;;;;;5117901;27;20055;-89
2022/12/15 08:09:43;;;;;;;19.02;10.40;;;-0.90;99.90;;;;;;5134718;27;20046;-88
2022/12/15 08:12:09;;;;;;;19.17;10.75;;;-2.00;99.90;;;;;;5116732;27;20112;-89
2022/12/15 08:14:35;;;;;;;18.85;10.68;;;-2.00;99.90;;;;;;5117872;27;20051;-88
2022/12/15 08:17:01;;;;;;;17.75;9.95;;;-2.00;99.90;;;;;;5116749;27;20576;-87
2022/12/15 08:19:27;;;;;;;17.45;10.70;;;-1.40;99.90;;;;;;5100311;27;20055;-88
2022/12/15 08:21:52;;;;;;;17.73;10.32;;;-1.90;99.90;;;;;;5116698;27;20118;-86
2022/12/15 08:24:18;;;;;;;21.23;10.93;;;-0.90;99.90;;;;;;5133557;27;20047;-87
2022/12/15 08:26:44;;;;;;;17.27;11.63;;;-1.70;99.90;;;;;;5115949;27;20097;-86
2022/12/15 08:29:11;;;;;;;15.30;9.43;;;-1.60;99.90;;;;;;5099565;27;20050;-88
2022/12/15 08:31:37;;;;;;;16.90;10.20;;;-1.30;99.90;;;;;;5099325;27;20070;-87
2022/12/15 08:34:03;;;;;;;18.42;10.75;;;0.10;99.90;;;;;;5099573;27;20054;-86
2022/12/15 08:36:29;;;;;;;18.85;8.32;;;0.00;99.90;;;;;;5134599;27;20493;-87
2022/12/15 08:38:55;;;;;;;18.30;10.43;;;-1.20;99.90;;;;;;5134300;27;20047;-87
2022/12/15 08:41:23;;;;;;;13.80;9.55;;;-1.20;99.90;;;;;;5116332;27;20466;-87
2022/12/15 08:43:49;;;;;;;16.42;9.55;;;-1.20;99.90;;;;;;5099735;27;20050;-87
2022/12/15 08:46:16;;;;;;;18.55;9.98;;;-1.20;99.90;;;;;;5117565;27;20432;-94
2022/12/15 08:48:41;;;;;;;18.55;9.85;;;-1.30;99.90;;;;;;5107522;27;20351;-93
2022/12/15 08:51:08;;;;;;;16.42;10.10;;;-1.30;99.90;;;;;;5125217;27;20082;-91
2022/12/15 08:53:34;;;;;;;19.17;10.43;;;-1.30;99.90;;;;;;5125778;27;20055;-91
2022/12/15 08:56:04;;;;;;;19.83;9.50;;;-0.90;99.90;;;;;;5125387;27;20133;-93
2022/12/15 08:58:30;;;;;;;15.10;9.95;;;-0.40;99.90;;;;;;5110322;27;20079;-92
2022/12/15 09:01:03;;;;;;;13.98;9.77;;;0.20;99.90;;;;;;5091150;27;20053;-91
2022/12/15 09:03:29;;;;;;;17.27;9.80;;;0.60;99.90;;;;;;5123285;27;20071;-91
2022/12/15 09:05:56;;;;;;;14.07;9.52;;;0.80;99.90;;;;;;5106713;27;20051;-91
2022/12/15 09:08:23;;;;;;;15.35;9.20;;;1.00;99.90;;;;;;5089364;27;20039;-88
2022/12/15 09:10:49;;;;;;;17.65;9.55;;;1.10;99.90;;;;;;5099913;27;20066;-87
2022/12/15 09:13:15;;;;;;;14.93;8.35;;;0.90;99.90;;;;;;5140779;27;20108;-92
2022/12/15 09:15:42;;;;;;;14.10;9.00;;;1.10;99.90;;;;;;5137098;27;20046;-92
2022/12/15 09:18:08;;;;;;;13.15;8.55;;;2.40;99.90;;;;;;5121610;27;20043;-93
2022/12/15 09:20:33;;;;;;;14.48;8.10;;;2.30;99.90;;;;;;5086166;28;20070;-87
2022/12/15 09:22:59;;;;;;;13.68;9.07;;;1.00;99.90;;;;;;5076962;28;20044;-91
2022/12/15 09:25:25;;;;;;;12.95;8.98;;;1.00;99.90;;;;;;5062379;28;20105;-90
2022/12/15 09:27:50;;;;;;;13.43;8.90;;;1.00;99.90;;;;;;5100821;28;20111;-88
2022/12/15 09:30:16;;;;;;;14.35;8.68;;;1.10;99.90;;;;;;5112165;28;20055;-88
2022/12/15 09:32:41;;;;;;;14.25;8.80;;;0.80;99.90;;;;;;5112186;28;20043;-90
2022/12/15 09:35:07;;;;;;;14.90;8.80;;;0.70;99.90;;;;;;5112413;28;20555;-89
2022/12/15 09:37:33;;;;;;;13.70;8.68;;;0.50;99.90;;;;;;5091811;28;20503;-89
2022/12/15 09:39:59;;;;;;;16.45;9.13;;;0.80;99.90;;;;;;5095720;28;20062;-92
2022/12/15 09:42:26;;;;;;;13.07;8.38;;;0.70;99.90;;;;;;5113289;28;20078;-87
2022/12/15 09:45:06;;;;;;;18.67;9.07;;;1.00;99.90;;;;;;5061751;28;20055;-86
2022/12/15 09:48:00;;;;;;;12.35;8.95;;;0.70;99.90;;;;;;5082413;28;20051;-90
2022/12/15 09:50:34;;;;;;;12.63;9.45;;;0.60;99.90;;;;;;5104401;28;20430;-90
2022/12/15 09:52:59;;;;;;;14.38;9.05;;;0.50;99.90;;;;;;5083287;28;20040;-91
2022/12/15 09:55:29;;;;;;;16.33;8.23;;;0.60;99.90;;;;;;5095058;28;20047;-91
2022/12/15 09:57:56;;;;;;;12.57;8.15;;;0.70;99.90;;;;;;5095538;28;20138;-90
2022/12/15 10:00:44;;;;;;;15.23;9.02;;;2.20;99.90;;;;;;5094613;28;20050;-88
2022/12/15 10:03:47;;;;;;;14.50;8.70;;;0.90;99.90;;;;;;5073123;28;20052;-91
2022/12/15 10:06:17;;;;;;;15.10;9.10;;;1.10;99.90;;;;;;5090068;28;20109;-84
2022/12/15 10:08:55;;;;;;;14.07;9.38;;;1.10;99.90;;;;;;5056761;28;20044;-84
2022/12/15 10:11:30;;;;;;;14.15;8.35;;;1.30;99.90;;;;;;5081621;28;20538;-84
2022/12/15 10:14:18;;;;;;;12.57;8.45;;;1.40;99.90;;;;;;5094257;28;20047;-85
2022/12/15 10:17:01;;;;;;;13.13;7.90;;;1.40;99.90;;;;;;5110381;28;20074;-84
2022/12/15 10:19:45;;;;;;;10.45;6.00;;;1.30;99.90;;;;;;5093131;28;20056;-83
2022/12/15 10:22:22;;;;;;;13.35;7.80;;;1.30;99.90;;;;;;5094554;28;20043;-84
2022/12/15 10:24:48;;;;;;;14.32;8.40;;;1.20;99.90;;;;;;5111275;27;20055;-90
2022/12/15 10:27:47;;;;;;;12.10;8.35;;;1.50;99.90;;;;;;5110697;28;20051;-89
2022/12/15 10:30:13;;;;;;;12.73;8.20;;;1.00;99.90;;;;;;5096723;28;20504;-88
2022/12/15 10:32:41;;;;;;;11.43;7.05;;;1.10;99.90;;;;;;5079779;27;20047;-89
2022/12/15 10:35:21;;;;;;;15.50;8.27;;;1.10;99.90;;;;;;5112888;28;20386;-87
2022/12/15 10:37:47;;;;;;;16.60;8.13;;;1.00;99.90;;;;;;5086892;27;20050;-88
2022/12/15 10:40:18;;;;;;;13.32;8.07;;;1.80;99.90;;;;;;5115528;27;20112;-86
2022/12/15 10:42:48;;;;;;;12.50;8.13;;;1.10;99.90;;;;;;5113482;27;20480;-87
2022/12/15 10:45:32;;;;;;;13.73;8.13;;;1.10;99.90;;;;;;5107462;28;20059;-86
2022/12/15 10:48:01;;;;;;;13.50;8.63;;;1.10;99.90;;;;;;5060001;28;20055;-87
2022/12/15 10:50:26;;;;;;;13.20;8.75;;;1.10;99.90;;;;;;5077415;28;20048;-88
2022/12/15 10:52:52;;;;;;;13.98;8.02;;;1.00;99.90;;;;;;5111290;28;20040;-88
2022/12/15 10:55:37;;;;;;;13.18;8.50;;;1.10;99.90;;;;;;5109986;28;20043;-86
2022/12/15 10:58:13;;;;;;;15.38;8.50;;;1.00;99.90;;;;;;5076860;28;20058;-83
2022/12/15 11:00:39;;;;;;;13.32;7.75;;;2.00;99.90;;;;;;5093637;28;20461;-84
2022/12/15 11:03:22;;;;;;;11.73;8.32;;;1.00;99.90;;;;;;5092524;28;20135;-85
2022/12/15 11:05:55;;;;;;;14.60;7.90;;;1.00;99.90;;;;;;5093890;28;20043;-84
2022/12/15 11:08:21;;;;;;;13.35;8.40;;;1.80;99.90;;;;;;5059194;28;20081;-84
2022/12/15 11:13:37;;;;;;;15.10;9.20;;;1.10;99.90;;;;;;5114805;27;20051;-87
2022/12/15 11:16:17;;;;;;;14.18;8.73;;;2.40;99.90;;;;;;5114233;28;20346;-88
2022/12/15 11:18:49;;;;;;;11.80;7.97;;;2.80;99.90;;;;;;5097220;27;20055;-88
2022/12/15 11:21:25;;;;;;;14.40;8.30;;;1.20;99.90;;;;;;5096776;28;20180;-88
2022/12/15 11:24:07;;;;;;;14.43;7.78;;;2.80;99.90;;;;;;5113405;28;20043;-85
2022/12/15 11:26:35;;;;;;;17.17;8.80;;;1.40;99.90;;;;;;5112234;28;20043;-88
2022/12/15 11:29:22;;;;;;;13.43;7.95;;;3.00;99.90;;;;;;5095626;28;20119;-86
2022/12/15 11:31:51;;;;;;;13.45;8.45;;;1.50;99.90;;;;;;5113614;28;20047;-85
2022/12/15 11:34:19;;;;;;;12.80;7.93;;;1.60;99.90;;;;;;5079486;28;20054;-85
2022/12/15 11:36:57;;;;;;;11.95;7.97;;;2.80;99.90;;;;;;5113000;28;20047;-85
2022/12/15 11:39:48;;;;;;;13.07;8.02;;;1.80;99.90;;;;;;5095820;28;20051;-85
2022/12/15 11:42:51;;;;;;;13.15;8.25;;;1.90;99.90;;;;;;5113493;28;20135;-87
2022/12/15 11:45:39;;;;;;;18.23;8.98;;;1.90;99.90;;;;;;5097072;28;20489;-87
2022/12/15 11:48:20;;;;;;;15.48;8.63;;;1.90;99.90;;;;;;5099098;28;20583;-85
2022/12/15 11:51:02;;;;;;;18.05;9.30;;;1.90;99.90;;;;;;5078803;28;20047;-84
2022/12/15 11:54:08;;;;;;;14.93;8.73;;;1.90;99.90;;;;;;5112022;28;20491;-85
2022/12/15 11:56:50;;;;;;;13.55;8.57;;;1.90;99.90;;;;;;5094854;28;20131;-84
2022/12/15 11:59:35;;;;;;;14.10;8.45;;;2.10;99.90;;;;;;5095836;28;20528;-85
2022/12/15 12:02:23;;;;;;;16.67;9.30;;;2.00;99.90;;;;;;5095835;28;20054;-84
2022/12/15 12:05:11;;;;;;;16.25;9.05;;;2.10;99.90;;;;;;5112225;28;20046;-84
2022/12/15 12:07:59;;;;;;;13.57;8.10;;;2.10;99.90;;;;;;5112584;28;20062;-83
2022/12/15 12:11:18;;;;;;;12.15;8.50;;;2.10;99.90;;;;;;5094995;28;20042;-84
2022/12/15 12:14:00;;;;;;;12.70;8.65;;;2.20;99.90;;;;;;5013349;28;20132;-85
2022/12/15 12:16:43;;;;;;;13.88;9.10;;;2.20;99.90;;;;;;4998785;28;20084;-86
2022/12/15 12:19:09;;;;;;;12.40;8.18;;;3.60;99.90;;;;;;5069812;28;20065;-85
2022/12/15 12:21:46;;;;;;;15.02;8.20;;;2.20;99.90;;;;;;5095229;28;20078;-84
2022/12/15 12:24:20;;;;;;;12.10;8.15;;;2.60;99.90;;;;;;5095176;28;20059;-84
2022/12/15 12:26:57;;;;;;;14.93;7.53;;;2.20;99.90;;;;;;5077615;27;20131;-83
2022/12/15 12:29:34;;;;;;;13.77;7.45;;;2.20;99.90;;;;;;5114963;27;20086;-82
2022/12/15 12:32:17;;;;;;;14.20;8.00;;;2.30;99.90;;;;;;5099266;27;20043;-83
2022/12/15 12:34:59;;;;;;;12.40;6.78;;;2.30;99.90;;;;;;5102167;27;20059;-86
2022/12/15 12:37:44;;;;;;;12.18;7.75;;;2.20;99.90;;;;;;5099772;27;20058;-86
2022/12/15 12:40:21;;;;;;;;;;;2.20;99.90;;;;;;5101715;27;20082;-86
2022/12/15 12:42:52;;;;;;;14.82;7.72;;;2.20;99.90;;;;;;5099425;27;19923;-86
2022/12/15 12:45:18;;;;;;;12.90;8.27;;;2.20;99.90;;;;;;5082466;27;20054;-86
2022/12/15 12:47:46;;;;;;;12.15;7.80;;;2.20;99.90;;;;;;5099354;27;20145;-86
2022/12/15 12:50:25;;;;;;;14.40;7.90;;;3.30;99.90;;;;;;5098781;27;20035;-87
2022/12/15 12:52:53;;;;;;;14.98;7.43;;;2.20;99.90;;;;;;5099355;27;20391;-88
2022/12/15 12:55:35;;;;;;;15.45;9.65;;;2.50;99.90;;;;;;5099371;27;20047;-86
2022/12/15 12:58:01;;;;;;;17.23;9.10;;;2.10;99.90;;;;;;5098757;27;20087;-87
2022/12/15 13:00:30;;;;;;;13.15;9.30;;;2.00;99.90;;;;;;5098991;27;20449;-87
2022/12/15 13:03:09;;;;;;;14.65;8.13;;;3.10;99.90;;;;;;5098772;27;20049;-88
2022/12/15 13:05:36;;;;;;;12.73;7.75;;;1.90;99.90;;;;;;5115873;27;20775;-87
2022/12/15 13:08:04;;;;;;;14.93;8.45;;;1.90;99.90;;;;;;5098673;27;20090;-85
2022/12/15 13:10:37;;;;;;;13.98;7.72;;;2.10;99.90;;;;;;5114787;27;20383;-84
2022/12/15 13:13:23;;;;;;;13.32;7.53;;;2.10;99.90;;;;;;5097724;27;20060;-85
2022/12/15 13:16:18;;;;;;;14.20;8.00;;;2.10;99.90;;;;;;5098570;27;20384;-86
2022/12/15 13:19:08;;;;;;;13.63;7.03;;;2.10;99.90;;;;;;5080662;27;20154;-88
2022/12/15 13:21:43;;;;;;;16.80;8.25;;;2.10;99.90;;;;;;5109855;27;20043;-83
2022/12/15 13:24:33;;;;;;;8.52;6.30;;;2.30;99.90;;;;;;5133552;27;20043;-83
2022/12/15 13:27:08;;;;;;;13.20;7.45;;;2.00;99.90;;;;;;5111459;27;20055;-85
2022/12/15 13:29:35;;;;;;;16.13;8.48;;;2.10;99.90;;;;;;5134560;27;20042;-84
2022/12/15 13:32:01;;;;;;;13.38;7.65;;;2.30;99.90;;;;;;5100891;27;20054;-84
2022/12/15 13:34:27;;;;;;;12.43;7.38;;;2.50;99.90;;;;;;5134744;27;20439;-83
2022/12/15 13:36:54;;;;;;;15.88;8.02;;;2.00;99.90;;;;;;5100883;27;20659;-84
2022/12/15 13:39:30;;;;;;;16.92;8.38;;;2.40;99.90;;;;;;5100612;27;20043;-86
2022/12/15 13:42:05;;;;;;;13.68;8.35;;;3.40;99.90;;;;;;5135644;27;20058;-86
2022/12/15 13:44:40;;;;;;;17.13;10.32;;;2.80;99.90;;;;;;5135126;27;20042;-84
2022/12/15 13:47:22;;;;;;;12.75;8.25;;;2.10;99.90;;;;;;5101201;27;20047;-85
2022/12/15 13:49:59;;;;;;;11.18;8.30;;;2.00;99.90;;;;;;5117976;27;20469;-86
2022/12/15 13:52:27;;;;;;;11.73;7.85;;;1.90;99.90;;;;;;5102126;27;20061;-87
2022/12/15 13:55:00;;;;;;;16.50;9.43;;;2.00;99.90;;;;;;5101646;27;20091;-91
2022/12/15 13:57:27;;;;;;;14.20;9.40;;;1.90;99.90;;;;;;5102150;27;20074;-88
2022/12/15 14:00:25;;;;;;;17.35;9.25;;;2.80;99.90;;;;;;5102116;27;20042;-87
2022/12/15 14:02:55;;;;;;;15.68;9.18;;;3.40;99.90;;;;;;5063940;27;20055;-89
2022/12/15 14:05:22;;;;;;;12.63;8.32;;;2.50;99.90;;;;;;5103508;27;20268;-89
2022/12/15 14:07:55;;;;;;;16.80;8.93;;;1.80;99.90;;;;;;5085774;27;20058;-89
2022/12/15 14:10:40;;;;;;;21.30;10.15;;;2.50;99.90;;;;;;5135535;27;20050;-85
2022/12/15 14:13:21;;;;;;;16.05;10.02;;;1.80;99.90;;;;;;5120088;27;20055;-85
2022/12/15 14:15:55;;;;;;;16.08;9.52;;;1.80;99.90;;;;;;5100835;27;20535;-85
2022/12/15 14:18:34;;;;;;;17.58;10.00;;;1.80;99.90;;;;;;5101150;27;20149;-85
2022/12/15 14:21:03;;;;;;;16.38;10.27;;;1.70;99.90;;;;;;5101421;27;20049;-85
2022/12/15 14:23:42;;;;;;;16.98;11.13;;;1.60;99.90;;;;;;5118035;27;20051;-87
2022/12/15 14:26:12;;;;;;;13.98;9.52;;;1.70;99.90;;;;;;5100720;27;20470;-88
2022/12/15 14:28:39;;;;;;;14.32;10.80;;;1.60;99.90;;;;;;5118205;27;20482;-87
2022/12/15 14:31:15;;;;;;;20.63;11.57;;;2.50;99.90;;;;;;5134838;27;20046;-87
2022/12/15 14:33:42;;;;;;;17.15;10.52;;;1.60;99.90;;;;;;5100715;27;20486;-86
2022/12/15 14:36:09;;;;;;;15.35;11.93;;;1.50;99.90;;;;;;5100755;27;20058;-85
2022/12/15 14:38:44;;;;;;;19.10;11.45;;;2.20;99.90;;;;;;5117819;27;20039;-85
2022/12/15 14:41:26;;;;;;;15.90;11.02;;;1.80;99.90;;;;;;5100854;27;20047;-85
2022/12/15 14:43:56;;;;;;;17.30;11.85;;;1.30;99.90;;;;;;5101881;27;20050;-85
2022/12/15 14:46:23;;;;;;;17.30;11.75;;;2.10;99.90;;;;;;5100286;27;20046;-86
2022/12/15 14:48:53;;;;;;;20.70;12.27;;;2.00;99.90;;;;;;5100290;27;20046;-85
2022/12/15 14:51:19;;;;;;;20.65;13.15;;;2.80;99.90;;;;;;5099469;27;20398;-83
2022/12/15 14:53:48;;;;;;;21.27;14.20;;;1.30;99.90;;;;;;5133801;27;20035;-90
2022/12/15 14:56:18;;;;;;;19.50;13.25;;;1.20;99.90;;;;;;5083176;27;20060;-84
2022/12/15 14:59:02;;;;;;;17.30;13.02;;;1.40;99.90;;;;;;5099127;27;20473;-84
2022/12/15 15:01:39;;;;;;;18.53;13.00;;;1.10;99.90;;;;;;5133982;27;20050;-85
2022/12/15 15:04:28;;;;;;;17.42;13.07;;;1.10;99.90;;;;;;5100021;27;20292;-84
2022/12/15 15:06:58;;;;;;;21.95;13.98;;;1.00;99.90;;;;;;5112385;27;20063;-85
2022/12/15 15:09:27;;;;;;;19.73;14.00;;;0.90;99.90;;;;;;5116599;27;20043;-85
2022/12/15 15:11:56;;;;;;;20.27;13.90;;;1.00;99.90;;;;;;5116825;27;20055;-85
2022/12/15 15:14:29;;;;;;;24.55;16.05;;;1.00;99.90;;;;;;5117265;27;20586;-84
2022/12/15 15:17:04;;;;;;;24.55;15.38;;;0.90;99.90;;;;;;5100273;27;20402;-83
2022/12/15 15:19:29;;;;;;;26.48;15.88;;;0.80;99.90;;;;;;5100445;27;20061;-84